sensor_id;sensor_type;location;lat;lon;timestamp;pressure;altitude;pressure_sealevel;temperature;humidity
39739;BME280;25422;48.286;8.484;2023-08-07T00:01:10;94111.97;;;7.85;100.00
39739;BME280;25422;48.286;8.484;2023-08-07T00:03:36;94100.59;;;7.86;100.00
39739;BME280;25422;48.286;8.484;2023-08-07T00:06:01;94101.25;;;7.88;100.00
39739;BME280;25422;48.286;8.484;2023-08-07T00:08:26;94109.22;;;7.86;100.00
39739;BME280;25422;48.286;8.484;2023-08-07T00:10:52;94106.66;;;7.94;100.00
39739;BME280;25422;48.286;8.484;2023-08-07T00:13:17;94105.84;;;7.94;100.00
39739;BME280;25422;48.286;8.484;2023-08-07T00:15:42;94104.88;;;7.95;100.00
39739;BME280;25422;48.286;8.484;2023-08-07T00:18:08;94107.69;;;8.02;100.00
39739;BME280;25422;48.286;8.484;2023-08-07T00:20:33;94102.94;;;7.97;100.00
39739;BME280;25422;48.286;8.484;2023-08-07T00:22:59;94100.84;;;8.01;100.00
39739;BME280;25422;48.286;8.484;2023-08-07T00:25:24;94115.50;;;8.02;100.00
39739;BME280;25422;48.286;8.484;2023-08-07T00:27:50;94121.22;;;8.05;100.00
39739;BME280;25422;48.286;8.484;2023-08-07T00:30:15;94124.66;;;8.06;100.00
39739;BME280;25422;48.286;8.484;2023-08-07T00:32:40;94119.91;;;8.09;100.00
39739;BME280;25422;48.286;8.484;2023-08-07T00:35:06;94119.91;;;8.09;100.00
39739;BME280;25422;48.286;8.484;2023-08-07T00:37:33;94117.66;;;8.15;100.00
39739;BME280;25422;48.286;8.484;2023-08-07T00:40:01;94114.41;;;8.13;100.00
39739;BME280;25422;48.286;8.484;2023-08-07T00:42:27;94111.81;;;8.13;100.00
39739;BME280;25422;48.286;8.484;2023-08-07T00:44:53;94117.66;;;8.15;100.00
39739;BME280;25422;48.286;8.484;2023-08-07T00:47:19;94124.84;;;8.13;100.00
39739;BME280;25422;48.286;8.484;2023-08-07T00:49:44;94129.72;;;8.16;100.00
39739;BME280;25422;48.286;8.484;2023-08-07T00:52:10;94133.97;;;8.17;100.00
39739;BME280;25422;48.286;8.484;2023-08-07T00:54:37;94133.16;;;8.16;100.00
39739;BME280;25422;48.286;8.484;2023-08-07T00:57:12;94130.38;;;8.18;100.00
39739;BME280;25422;48.286;8.484;2023-08-07T00:59:38;94126.66;;;8.20;100.00
39739;BME280;25422;48.286;8.484;2023-08-07T01:02:04;94132.19;;;8.17;100.00
39739;BME280;25422;48.286;8.484;2023-08-07T01:04:31;94126.97;;;8.17;100.00
39739;BME280;25422;48.286;8.484;2023-08-07T01:06:56;94118.38;;;8.25;100.00
39739;BME280;25422;48.286;8.484;2023-08-07T01:09:22;94117.06;;;8.21;100.00
39739;BME280;25422;48.286;8.484;2023-08-07T01:11:57;94116.72;;;8.16;100.00
39739;BME280;25422;48.286;8.484;2023-08-07T01:14:36;94127.78;;;8.18;100.00
39739;BME280;25422;48.286;8.484;2023-08-07T01:17:10;94125.84;;;8.20;100.00
39739;BME280;25422;48.286;8.484;2023-08-07T01:19:37;94123.06;;;8.21;100.00
39739;BME280;25422;48.286;8.484;2023-08-07T01:22:16;94115.75;;;8.17;100.00
39739;BME280;25422;48.286;8.484;2023-08-07T01:24:48;94121.25;;;8.14;100.00
39739;BME280;25422;48.286;8.484;2023-08-07T01:30:02;94127.91;;;8.08;100.00
39739;BME280;25422;48.286;8.484;2023-08-07T01:32:55;94117.63;;;8.06;100.00
39739;BME280;25422;48.286;8.484;2023-08-07T01:35:27;94121.53;;;8.02;100.00
39739;BME280;25422;48.286;8.484;2023-08-07T01:37:56;94119.41;;;7.98;100.00
39739;BME280;25422;48.286;8.484;2023-08-07T01:40:22;94124.44;;;7.99;100.00
39739;BME280;25422;48.286;8.484;2023-08-07T01:42:48;94118.41;;;7.99;100.00
39739;BME280;25422;48.286;8.484;2023-08-07T01:45:21;94121.47;;;7.94;100.00
39739;BME280;25422;48.286;8.484;2023-08-07T01:47:48;94123.94;;;7.96;100.00
39739;BME280;25422;48.286;8.484;2023-08-07T01:50:14;94120.97;;;7.90;100.00
39739;BME280;25422;48.286;8.484;2023-08-07T01:52:39;94127.97;;;7.90;100.00
39739;BME280;25422;48.286;8.484;2023-08-07T01:55:05;94135.78;;;7.90;100.00
39739;BME280;25422;48.286;8.484;2023-08-07T01:57:31;94142.75;;;7.89;100.00
39739;BME280;25422;48.286;8.484;2023-08-07T01:59:56;94142.28;;;7.86;100.00
39739;BME280;25422;48.286;8.484;2023-08-07T02:02:21;94143.59;;;7.90;100.00
39739;BME280;25422;48.286;8.484;2023-08-07T02:04:47;94142.13;;;7.87;100.00
39739;BME280;25422;48.286;8.484;2023-08-07T02:07:13;94145.69;;;7.86;100.00
39739;BME280;25422;48.286;8.484;2023-08-07T02:09:38;94146.53;;;7.87;100.00
39739;BME280;25422;48.286;8.484;2023-08-07T02:12:04;94155.31;;;7.86;100.00
39739;BME280;25422;48.286;8.484;2023-08-07T02:14:30;94151.22;;;7.83;100.00
39739;BME280;25422;48.286;8.484;2023-08-07T02:16:55;94144.72;;;7.87;100.00
39739;BME280;25422;48.286;8.484;2023-08-07T02:19:21;94148.13;;;7.88;100.00
39739;BME280;25422;48.286;8.484;2023-08-07T02:21:46;94147.00;;;7.90;100.00
39739;BME280;25422;48.286;8.484;2023-08-07T02:24:12;94151.41;;;7.90;100.00
39739;BME280;25422;48.286;8.484;2023-08-07T02:26:39;94147.50;;;7.86;100.00
39739;BME280;25422;48.286;8.484;2023-08-07T02:29:04;94153.19;;;7.89;100.00
39739;BME280;25422;48.286;8.484;2023-08-07T02:31:31;94148.13;;;7.88;100.00
39739;BME280;25422;48.286;8.484;2023-08-07T02:33:57;94154.78;;;7.82;100.00
39739;BME280;25422;48.286;8.484;2023-08-07T02:36:22;94144.84;;;7.78;100.00
39739;BME280;25422;48.286;8.484;2023-08-07T02:38:48;94154.72;;;7.74;100.00
39739;BME280;25422;48.286;8.484;2023-08-07T02:41:13;94149.69;;;7.72;100.00
39739;BME280;25422;48.286;8.484;2023-08-07T02:43:38;94153.56;;;7.68;100.00
39739;BME280;25422;48.286;8.484;2023-08-07T02:46:04;94147.53;;;7.68;100.00
39739;BME280;25422;48.286;8.484;2023-08-07T02:48:30;94151.91;;;7.67;100.00
39739;BME280;25422;48.286;8.484;2023-08-07T02:50:56;94150.28;;;7.66;100.00
39739;BME280;25422;48.286;8.484;2023-08-07T02:53:21;94150.28;;;7.66;100.00
39739;BME280;25422;48.286;8.484;2023-08-07T02:55:47;94145.06;;;7.66;100.00
39739;BME280;25422;48.286;8.484;2023-08-07T02:58:12;94149.16;;;7.69;100.00
39739;BME280;25422;48.286;8.484;2023-08-07T03:00:37;94150.59;;;7.63;100.00
39739;BME280;25422;48.286;8.484;2023-08-07T03:03:03;94151.22;;;7.57;100.00
39739;BME280;25422;48.286;8.484;2023-08-07T03:05:29;94157.53;;;7.54;100.00
39739;BME280;25422;48.286;8.484;2023-08-07T03:07:54;94151.50;;;7.54;100.00
39739;BME280;25422;48.286;8.484;2023-08-07T03:10:20;94164.13;;;7.49;100.00
39739;BME280;25422;48.286;8.484;2023-08-07T03:12:45;94156.78;;;7.44;100.00
39739;BME280;25422;48.286;8.484;2023-08-07T03:15:11;94156.94;;;7.42;100.00
39739;BME280;25422;48.286;8.484;2023-08-07T03:17:36;94160.19;;;7.45;100.00
39739;BME280;25422;48.286;8.484;2023-08-07T03:20:02;94163.78;;;7.43;100.00
39739;BME280;25422;48.286;8.484;2023-08-07T03:22:29;94160.13;;;7.36;100.00
39739;BME280;25422;48.286;8.484;2023-08-07T03:24:55;94162.09;;;7.34;100.00
39739;BME280;25422;48.286;8.484;2023-08-07T03:27:20;94164.84;;;7.33;100.00
39739;BME280;25422;48.286;8.484;2023-08-07T03:29:46;94170.19;;;7.31;100.00
39739;BME280;25422;48.286;8.484;2023-08-07T03:32:11;94166.53;;;7.24;100.00
39739;BME280;25422;48.286;8.484;2023-08-07T03:34:37;94160.22;;;7.26;100.00
39739;BME280;25422;48.286;8.484;2023-08-07T03:37:04;94165.81;;;7.32;100.00
39739;BME280;25422;48.286;8.484;2023-08-07T03:39:30;94167.38;;;7.24;100.00
39739;BME280;25422;48.286;8.484;2023-08-07T03:41:56;94160.75;;;7.30;100.00
39739;BME280;25422;48.286;8.484;2023-08-07T03:44:22;94160.75;;;7.30;100.00
39739;BME280;25422;48.286;8.484;2023-08-07T03:46:48;94161.78;;;7.37;100.00
39739;BME280;25422;48.286;8.484;2023-08-07T03:49:13;94157.19;;;7.31;100.00
39739;BME280;25422;48.286;8.484;2023-08-07T03:51:39;94155.84;;;7.27;100.00
39739;BME280;25422;48.286;8.484;2023-08-07T03:54:05;94162.41;;;7.31;100.00
39739;BME280;25422;48.286;8.484;2023-08-07T03:56:31;94164.31;;;7.29;100.00
39739;BME280;25422;48.286;8.484;2023-08-07T03:59:02;94161.34;;;7.24;100.00
39739;BME280;25422;48.286;8.484;2023-08-07T04:01:28;94169.75;;;7.36;100.00
39739;BME280;25422;48.286;8.484;2023-08-07T04:03:54;94168.94;;;7.35;100.00
39739;BME280;25422;48.286;8.484;2023-08-07T04:06:20;94167.66;;;7.39;100.00
39739;BME280;25422;48.286;8.484;2023-08-07T04:08:47;94173.16;;;7.36;100.00
39739;BME280;25422;48.286;8.484;2023-08-07T04:11:13;94170.63;;;7.45;100.00
39739;BME280;25422;48.286;8.484;2023-08-07T04:13:38;94166.41;;;7.43;100.00
39739;BME280;25422;48.286;8.484;2023-08-07T04:16:04;94160.19;;;7.45;100.00
39739;BME280;25422;48.286;8.484;2023-08-07T04:18:31;94157.75;;;7.43;100.00
39739;BME280;25422;48.286;8.484;2023-08-07T04:20:57;94173.22;;;7.45;100.00
39739;BME280;25422;48.286;8.484;2023-08-07T04:23:23;94167.41;;;7.51;100.00
39739;BME280;25422;48.286;8.484;2023-08-07T04:25:49;94175.44;;;7.57;100.00
39739;BME280;25422;48.286;8.484;2023-08-07T04:28:15;94162.22;;;7.51;100.00
39739;BME280;25422;48.286;8.484;2023-08-07T04:30:41;94157.31;;;7.48;100.00
39739;BME280;25422;48.286;8.484;2023-08-07T04:33:07;94161.69;;;7.47;100.00
39739;BME280;25422;48.286;8.484;2023-08-07T04:35:33;94160.28;;;7.53;100.00
39739;BME280;25422;48.286;8.484;2023-08-07T04:37:59;94157.38;;;7.56;100.00
39739;BME280;25422;48.286;8.484;2023-08-07T04:40:25;94153.81;;;7.57;100.00
39739;BME280;25422;48.286;8.484;2023-08-07T04:42:50;94161.31;;;7.60;100.00
39739;BME280;25422;48.286;8.484;2023-08-07T04:45:16;94157.75;;;7.61;100.00
39739;BME280;25422;48.286;8.484;2023-08-07T04:47:41;94155.19;;;7.69;100.00
39739;BME280;25422;48.286;8.484;2023-08-07T04:50:07;94155.47;;;7.84;100.00
39739;BME280;25422;48.286;8.484;2023-08-07T04:52:33;94155.66;;;7.91;100.00
39739;BME280;25422;48.286;8.484;2023-08-07T04:54:59;94164.66;;;8.31;100.00
39739;BME280;25422;48.286;8.484;2023-08-07T04:57:24;94159.16;;;8.77;100.00
39739;BME280;25422;48.286;8.484;2023-08-07T04:59:50;94155.81;;;9.26;100.00
39739;BME280;25422;48.286;8.484;2023-08-07T05:02:19;94166.91;;;9.11;100.00
39739;BME280;25422;48.286;8.484;2023-08-07T05:04:44;94166.75;;;9.05;100.00
39739;BME280;25422;48.286;8.484;2023-08-07T05:07:10;94167.84;;;8.94;100.00
39739;BME280;25422;48.286;8.484;2023-08-07T05:09:35;94162.91;;;8.83;100.00
39739;BME280;25422;48.286;8.484;2023-08-07T05:12:01;94161.13;;;8.75;100.00
39739;BME280;25422;48.286;8.484;2023-08-07T05:14:28;94171.66;;;8.65;100.00
39739;BME280;25422;48.286;8.484;2023-08-07T05:16:54;94181.47;;;8.71;100.00
39739;BME280;25422;48.286;8.484;2023-08-07T05:19:19;94170.28;;;8.87;100.00
39739;BME280;25422;48.286;8.484;2023-08-07T05:21:45;94178.75;;;8.89;100.00
39739;BME280;25422;48.286;8.484;2023-08-07T05:24:15;94161.88;;;9.51;100.00
39739;BME280;25422;48.286;8.484;2023-08-07T05:26:40;94161.56;;;9.46;100.00
39739;BME280;25422;48.286;8.484;2023-08-07T05:29:06;94162.53;;;9.28;100.00
39739;BME280;25422;48.286;8.484;2023-08-07T05:31:32;94159.09;;;9.28;100.00
39739;BME280;25422;48.286;8.484;2023-08-07T05:33:57;94161.53;;;9.62;100.00
39739;BME280;25422;48.286;8.484;2023-08-07T05:36:23;94158.63;;;10.46;100.00
39739;BME280;25422;48.286;8.484;2023-08-07T05:38:48;94160.47;;;10.77;100.00
39739;BME280;25422;48.286;8.484;2023-08-07T05:41:13;94162.94;;;10.23;100.00
39739;BME280;25422;48.286;8.484;2023-08-07T05:43:39;94165.13;;;9.61;100.00
39739;BME280;25422;48.286;8.484;2023-08-07T05:46:04;94176.09;;;9.57;100.00
39739;BME280;25422;48.286;8.484;2023-08-07T05:48:30;94175.75;;;9.35;100.00
39739;BME280;25422;48.286;8.484;2023-08-07T05:50:55;94166.75;;;9.21;100.00
39739;BME280;25422;48.286;8.484;2023-08-07T05:53:20;94175.91;;;9.42;100.00
39739;BME280;25422;48.286;8.484;2023-08-07T05:55:46;94179.66;;;9.23;100.00
39739;BME280;25422;48.286;8.484;2023-08-07T05:58:11;94169.84;;;9.17;100.00
39739;BME280;25422;48.286;8.484;2023-08-07T06:00:37;94179.63;;;9.06;100.00
39739;BME280;25422;48.286;8.484;2023-08-07T06:03:02;94186.78;;;9.13;100.00
39739;BME280;25422;48.286;8.484;2023-08-07T06:05:28;94177.03;;;9.31;100.00
39739;BME280;25422;48.286;8.484;2023-08-07T06:07:53;94176.25;;;9.31;100.00
39739;BME280;25422;48.286;8.484;2023-08-07T06:10:18;94186.19;;;9.43;100.00
39739;BME280;25422;48.286;8.484;2023-08-07T06:12:44;94178.19;;;9.45;100.00
39739;BME280;25422;48.286;8.484;2023-08-07T06:15:09;94188.31;;;9.48;100.00
39739;BME280;25422;48.286;8.484;2023-08-07T06:17:35;94193.06;;;9.44;100.00
39739;BME280;25422;48.286;8.484;2023-08-07T06:20:00;94194.53;;;9.47;100.00
39739;BME280;25422;48.286;8.484;2023-08-07T06:22:26;94194.03;;;9.43;100.00
39739;BME280;25422;48.286;8.484;2023-08-07T06:24:51;94203.97;;;9.40;100.00
39739;BME280;25422;48.286;8.484;2023-08-07T06:27:17;94210.31;;;9.29;100.00
39739;BME280;25422;48.286;8.484;2023-08-07T06:29:42;94203.97;;;9.32;100.00
39739;BME280;25422;48.286;8.484;2023-08-07T06:32:07;94205.75;;;9.31;100.00
39739;BME280;25422;48.286;8.484;2023-08-07T06:34:35;94213.78;;;9.38;100.00
39739;BME280;25422;48.286;8.484;2023-08-07T06:37:00;94210.66;;;9.51;100.00
39739;BME280;25422;48.286;8.484;2023-08-07T06:39:26;94207.75;;;9.54;100.00
39739;BME280;25422;48.286;8.484;2023-08-07T06:41:51;94206.44;;;9.66;100.00
39739;BME280;25422;48.286;8.484;2023-08-07T06:44:20;94210.69;;;9.75;100.00
39739;BME280;25422;48.286;8.484;2023-08-07T06:46:45;94212.47;;;9.75;100.00
39739;BME280;25422;48.286;8.484;2023-08-07T06:49:10;94201.06;;;9.68;100.00
39739;BME280;25422;48.286;8.484;2023-08-07T06:51:36;94202.88;;;9.75;100.00
39739;BME280;25422;48.286;8.484;2023-08-07T06:54:01;94211.00;;;9.56;100.00
39739;BME280;25422;48.286;8.484;2023-08-07T06:56:27;94209.69;;;9.60;100.00
39739;BME280;25422;48.286;8.484;2023-08-07T06:58:52;94212.31;;;9.52;100.00
39739;BME280;25422;48.286;8.484;2023-08-07T07:01:17;94216.84;;;9.33;100.00
39739;BME280;25422;48.286;8.484;2023-08-07T07:03:43;94226.81;;;9.21;100.00
39739;BME280;25422;48.286;8.484;2023-08-07T07:06:12;94226.63;;;9.23;100.00
39739;BME280;25422;48.286;8.484;2023-08-07T07:08:37;94227.94;;;9.27;100.00
39739;BME280;25422;48.286;8.484;2023-08-07T07:11:02;94238.72;;;9.24;100.00
39739;BME280;25422;48.286;8.484;2023-08-07T07:13:29;94244.41;;;9.19;100.00
39739;BME280;25422;48.286;8.484;2023-08-07T07:15:55;94246.22;;;9.19;100.00
39739;BME280;25422;48.286;8.484;2023-08-07T07:18:20;94241.97;;;9.26;100.00
39739;BME280;25422;48.286;8.484;2023-08-07T07:20:46;94253.34;;;9.08;100.00
39739;BME280;25422;48.286;8.484;2023-08-07T07:23:11;94262.81;;;9.09;100.00
39739;BME280;25422;48.286;8.484;2023-08-07T07:25:36;94248.28;;;9.07;100.00
39739;BME280;25422;48.286;8.484;2023-08-07T07:28:02;94258.72;;;9.07;100.00
39739;BME280;25422;48.286;8.484;2023-08-07T07:30:28;94257.28;;;9.21;100.00
39739;BME280;25422;48.286;8.484;2023-08-07T07:32:53;94246.53;;;9.16;100.00
39739;BME280;25422;48.286;8.484;2023-08-07T07:35:18;94258.47;;;9.26;100.00
39739;BME280;25422;48.286;8.484;2023-08-07T07:37:44;94268.25;;;9.33;100.00
39739;BME280;25422;48.286;8.484;2023-08-07T07:40:09;94274.16;;;9.43;100.00
39739;BME280;25422;48.286;8.484;2023-08-07T07:42:35;94267.28;;;9.34;100.00
39739;BME280;25422;48.286;8.484;2023-08-07T07:45:00;94265.69;;;9.49;100.00
39739;BME280;25422;48.286;8.484;2023-08-07T07:47:26;94264.53;;;9.43;100.00
39739;BME280;25422;48.286;8.484;2023-08-07T07:50:05;94274.34;;;9.41;100.00
39739;BME280;25422;48.286;8.484;2023-08-07T07:52:31;94266.50;;;9.41;100.00
39739;BME280;25422;48.286;8.484;2023-08-07T07:54:57;94277.09;;;9.48;100.00
39739;BME280;25422;48.286;8.484;2023-08-07T07:57:22;94275.16;;;9.58;100.00
39739;BME280;25422;48.286;8.484;2023-08-07T07:59:47;94280.38;;;9.58;100.00
39739;BME280;25422;48.286;8.484;2023-08-07T08:02:14;94280.41;;;10.00;100.00
39739;BME280;25422;48.286;8.484;2023-08-07T08:04:41;94278.63;;;10.08;100.00
39739;BME280;25422;48.286;8.484;2023-08-07T08:07:07;94292.03;;;10.22;100.00
39739;BME280;25422;48.286;8.484;2023-08-07T08:09:32;94296.47;;;11.02;100.00
39739;BME280;25422;48.286;8.484;2023-08-07T08:11:57;94290.31;;;10.87;100.00
39739;BME280;25422;48.286;8.484;2023-08-07T08:14:23;94296.09;;;11.13;100.00
39739;BME280;25422;48.286;8.484;2023-08-07T08:16:48;94291.97;;;11.59;100.00
39739;BME280;25422;48.286;8.484;2023-08-07T08:19:15;94289.19;;;11.84;100.00
39739;BME280;25422;48.286;8.484;2023-08-07T08:21:42;94279.28;;;12.17;100.00
39739;BME280;25422;48.286;8.484;2023-08-07T08:24:07;94288.50;;;12.51;100.00
39739;BME280;25422;48.286;8.484;2023-08-07T08:26:33;94295.38;;;12.37;100.00
39739;BME280;25422;48.286;8.484;2023-08-07T08:28:58;94284.03;;;11.98;100.00
39739;BME280;25422;48.286;8.484;2023-08-07T08:31:24;94296.22;;;11.60;100.00
39739;BME280;25422;48.286;8.484;2023-08-07T08:33:49;94296.47;;;12.58;100.00
39739;BME280;25422;48.286;8.484;2023-08-07T08:36:15;94293.59;;;13.12;100.00
39739;BME280;25422;48.286;8.484;2023-08-07T08:38:40;94292.56;;;13.95;100.00
39739;BME280;25422;48.286;8.484;2023-08-07T08:41:07;94292.56;;;13.58;100.00
39739;BME280;25422;48.286;8.484;2023-08-07T08:43:34;94297.31;;;13.03;100.00
39739;BME280;25422;48.286;8.484;2023-08-07T08:46:04;94301.56;;;14.29;100.00
39739;BME280;25422;48.286;8.484;2023-08-07T08:48:34;94300.25;;;13.96;100.00
39739;BME280;25422;48.286;8.484;2023-08-07T08:51:01;94300.56;;;14.30;100.00
39739;BME280;25422;48.286;8.484;2023-08-07T08:53:27;94302.22;;;14.88;100.00
39739;BME280;25422;48.286;8.484;2023-08-07T08:55:53;94302.69;;;14.63;100.00
39739;BME280;25422;48.286;8.484;2023-08-07T08:58:19;94315.59;;;15.63;100.00
39739;BME280;25422;48.286;8.484;2023-08-07T09:00:45;94302.53;;;14.71;100.00
39739;BME280;25422;48.286;8.484;2023-08-07T09:03:11;94304.72;;;14.18;100.00
39739;BME280;25422;48.286;8.484;2023-08-07T09:05:37;94296.66;;;14.47;100.00
39739;BME280;25422;48.286;8.484;2023-08-07T09:08:03;94299.59;;;14.88;100.00
39739;BME280;25422;48.286;8.484;2023-08-07T09:10:29;94295.56;;;15.27;100.00
39739;BME280;25422;48.286;8.484;2023-08-07T09:13:01;94285.63;;;14.87;100.00
39739;BME280;25422;48.286;8.484;2023-08-07T09:15:34;94298.66;;;14.45;100.00
39739;BME280;25422;48.286;8.484;2023-08-07T09:18:02;94290.41;;;14.77;100.00
39739;BME280;25422;48.286;8.484;2023-08-07T09:20:30;94298.56;;;14.60;100.00
39739;BME280;25422;48.286;8.484;2023-08-07T09:22:55;94303.41;;;14.35;100.00
39739;BME280;25422;48.286;8.484;2023-08-07T09:25:29;94303.44;;;14.85;100.00
39739;BME280;25422;48.286;8.484;2023-08-07T09:27:55;94304.75;;;15.03;100.00
39739;BME280;25422;48.286;8.484;2023-08-07T09:30:28;94308.41;;;15.43;100.00
39739;BME280;25422;48.286;8.484;2023-08-07T09:32:56;94312.41;;;14.91;100.00
39739;BME280;25422;48.286;8.484;2023-08-07T09:35:22;94304.81;;;16.26;100.00
39739;BME280;25422;48.286;8.484;2023-08-07T09:37:49;94312.28;;;16.02;100.00
39739;BME280;25422;48.286;8.484;2023-08-07T09:40:14;94314.84;;;14.92;100.00
39739;BME280;25422;48.286;8.484;2023-08-07T09:42:41;94312.56;;;15.24;100.00
39739;BME280;25422;48.286;8.484;2023-08-07T09:48:02;94317.66;;;14.41;100.00
39739;BME280;25422;48.286;8.484;2023-08-07T09:50:28;94319.91;;;14.00;100.00
39739;BME280;25422;48.286;8.484;2023-08-07T09:52:55;94317.31;;;13.64;100.00
39739;BME280;25422;48.286;8.484;2023-08-07T09:55:21;94333.28;;;13.18;100.00
39739;BME280;25422;48.286;8.484;2023-08-07T09:57:48;94323.06;;;13.38;100.00
39739;BME280;25422;48.286;8.484;2023-08-07T10:00:14;94320.81;;;14.58;100.00
39739;BME280;25422;48.286;8.484;2023-08-07T10:02:42;94319.31;;;14.70;100.00
39739;BME280;25422;48.286;8.484;2023-08-07T10:05:10;94340.03;;;14.30;100.00
39739;BME280;25422;48.286;8.484;2023-08-07T10:07:37;94333.09;;;13.49;100.00
39739;BME280;25422;48.286;8.484;2023-08-07T10:10:03;94333.47;;;12.86;100.00
39739;BME280;25422;48.286;8.484;2023-08-07T10:12:29;94340.13;;;12.74;100.00
39739;BME280;25422;48.286;8.484;2023-08-07T10:14:55;94342.00;;;13.85;100.00
39739;BME280;25422;48.286;8.484;2023-08-07T10:17:23;94342.22;;;14.98;100.00
39739;BME280;25422;48.286;8.484;2023-08-07T10:19:50;94341.09;;;14.57;100.00
39739;BME280;25422;48.286;8.484;2023-08-07T10:22:17;94337.75;;;14.98;100.00
39739;BME280;25422;48.286;8.484;2023-08-07T10:24:44;94337.97;;;14.97;100.00
39739;BME280;25422;48.286;8.484;2023-08-07T10:27:15;94344.81;;;14.91;100.00
39739;BME280;25422;48.286;8.484;2023-08-07T10:29:43;94337.72;;;14.92;100.00
39739;BME280;25422;48.286;8.484;2023-08-07T10:32:10;94345.16;;;14.60;100.00
39739;BME280;25422;48.286;8.484;2023-08-07T10:34:37;94346.97;;;14.38;100.00
39739;BME280;25422;48.286;8.484;2023-08-07T10:37:06;94345.78;;;14.19;100.00
39739;BME280;25422;48.286;8.484;2023-08-07T10:39:32;94347.03;;;15.23;100.00
39739;BME280;25422;48.286;8.484;2023-08-07T10:41:57;94351.38;;;15.37;100.00
39739;BME280;25422;48.286;8.484;2023-08-07T10:44:30;94342.31;;;15.46;100.00
39739;BME280;25422;48.286;8.484;2023-08-07T10:46:57;94355.63;;;14.75;100.00
39739;BME280;25422;48.286;8.484;2023-08-07T10:49:41;94363.63;;;13.65;100.00
39739;BME280;25422;48.286;8.484;2023-08-07T10:52:11;94367.72;;;13.53;100.00
39739;BME280;25422;48.286;8.484;2023-08-07T10:54:41;94360.25;;;13.11;100.00
39739;BME280;25422;48.286;8.484;2023-08-07T10:57:11;94368.31;;;13.10;100.00
39739;BME280;25422;48.286;8.484;2023-08-07T10:59:38;94372.03;;;13.15;100.00
39739;BME280;25422;48.286;8.484;2023-08-07T11:02:07;94358.00;;;13.23;100.00
39739;BME280;25422;48.286;8.484;2023-08-07T11:04:34;94360.19;;;14.01;100.00
39739;BME280;25422;48.286;8.484;2023-08-07T11:07:02;94362.94;;;14.58;100.00
39739;BME280;25422;48.286;8.484;2023-08-07T11:09:27;94370.59;;;14.31;100.00
39739;BME280;25422;48.286;8.484;2023-08-07T11:11:53;94360.50;;;14.13;100.00
39739;BME280;25422;48.286;8.484;2023-08-07T11:14:19;94372.38;;;13.87;100.00
39739;BME280;25422;48.286;8.484;2023-08-07T11:16:46;94359.28;;;13.57;100.00
39739;BME280;25422;48.286;8.484;2023-08-07T11:19:13;94358.78;;;13.83;100.00
39739;BME280;25422;48.286;8.484;2023-08-07T11:21:40;94366.91;;;14.25;100.00
39739;BME280;25422;48.286;8.484;2023-08-07T11:24:06;94362.03;;;14.65;100.00
39739;BME280;25422;48.286;8.484;2023-08-07T11:26:31;94366.03;;;15.46;100.00
39739;BME280;25422;48.286;8.484;2023-08-07T11:28:57;94362.84;;;15.99;100.00
39739;BME280;25422;48.286;8.484;2023-08-07T11:31:24;94367.16;;;15.65;100.00
39739;BME280;25422;48.286;8.484;2023-08-07T11:33:51;94368.81;;;16.35;98.92
39739;BME280;25422;48.286;8.484;2023-08-07T11:36:17;94367.81;;;16.49;92.41
39739;BME280;25422;48.286;8.484;2023-08-07T11:38:44;94376.25;;;16.11;98.61
39739;BME280;25422;48.286;8.484;2023-08-07T11:41:11;94366.91;;;16.09;100.00
39739;BME280;25422;48.286;8.484;2023-08-07T11:43:37;94367.22;;;16.74;99.76
39739;BME280;25422;48.286;8.484;2023-08-07T11:46:05;94352.38;;;17.20;95.53
39739;BME280;25422;48.286;8.484;2023-08-07T11:48:33;94347.72;;;16.95;90.76
39739;BME280;25422;48.286;8.484;2023-08-07T11:50:59;94352.78;;;16.70;96.99
39739;BME280;25422;48.286;8.484;2023-08-07T11:53:27;94359.19;;;16.07;99.65
39739;BME280;25422;48.286;8.484;2023-08-07T11:56:02;94358.84;;;16.50;100.00
39739;BME280;25422;48.286;8.484;2023-08-07T11:58:35;94354.94;;;16.19;93.35
39739;BME280;25422;48.286;8.484;2023-08-07T12:01:15;94344.78;;;15.55;97.52
39739;BME280;25422;48.286;8.484;2023-08-07T12:06:25;94353.22;;;15.43;99.14
39739;BME280;25422;48.286;8.484;2023-08-07T12:08:54;94356.63;;;15.02;100.00
39739;BME280;25422;48.286;8.484;2023-08-07T12:11:20;94360.06;;;14.53;100.00
39739;BME280;25422;48.286;8.484;2023-08-07T12:13:46;94353.91;;;14.02;100.00
39739;BME280;25422;48.286;8.484;2023-08-07T12:16:14;94358.78;;;13.83;100.00
39739;BME280;25422;48.286;8.484;2023-08-07T12:18:50;94356.78;;;13.86;100.00
39739;BME280;25422;48.286;8.484;2023-08-07T12:21:18;94361.44;;;13.69;100.00
39739;BME280;25422;48.286;8.484;2023-08-07T12:23:49;94360.09;;;13.94;100.00
39739;BME280;25422;48.286;8.484;2023-08-07T12:26:16;94365.53;;;14.29;100.00
39739;BME280;25422;48.286;8.484;2023-08-07T12:28:42;94353.19;;;14.30;100.00
39739;BME280;25422;48.286;8.484;2023-08-07T12:31:07;94357.16;;;14.41;100.00
39739;BME280;25422;48.286;8.484;2023-08-07T12:33:33;94353.69;;;14.40;100.00
39739;BME280;25422;48.286;8.484;2023-08-07T12:35:59;94359.59;;;14.21;100.00
39739;BME280;25422;48.286;8.484;2023-08-07T12:38:25;94356.28;;;13.97;100.00
39739;BME280;25422;48.286;8.484;2023-08-07T12:40:51;94360.06;;;13.88;100.00
39739;BME280;25422;48.286;8.484;2023-08-07T12:43:16;94367.50;;;13.84;100.00
39739;BME280;25422;48.286;8.484;2023-08-07T12:45:42;94364.25;;;14.04;100.00
39739;BME280;25422;48.286;8.484;2023-08-07T12:48:08;94363.44;;;14.03;100.00
39739;BME280;25422;48.286;8.484;2023-08-07T12:50:33;94359.41;;;14.44;100.00
39739;BME280;25422;48.286;8.484;2023-08-07T12:52:59;94359.66;;;14.49;100.00
39739;BME280;25422;48.286;8.484;2023-08-07T12:55:25;94364.34;;;14.54;100.00
39739;BME280;25422;48.286;8.484;2023-08-07T12:57:52;94361.97;;;14.59;100.00
39739;BME280;25422;48.286;8.484;2023-08-07T13:00:18;94360.97;;;14.38;100.00
39739;BME280;25422;48.286;8.484;2023-08-07T13:02:45;94349.19;;;14.34;100.00